createdAt,value
2023-02-03T00:01:40.747Z,12.65
2023-02-03T00:04:07.914Z,7.68
2023-02-03T00:06:35.060Z,11.52
2023-02-03T00:09:02.426Z,14.27
2023-02-03T00:11:32.709Z,11.45
2023-02-03T00:13:59.905Z,10.82
2023-02-03T00:16:27.197Z,15.27
2023-02-03T00:18:54.522Z,13.10
2023-02-03T00:21:21.673Z,12.45
2023-02-03T00:23:48.873Z,12.18
2023-02-03T00:26:16.762Z,13.15
2023-02-03T00:28:44.007Z,12.73
2023-02-03T00:31:18.121Z,11.03
2023-02-03T00:33:45.308Z,11.85
2023-02-03T00:36:12.688Z,7.57
2023-02-03T00:38:39.869Z,11.07
2023-02-03T00:41:07.517Z,8.02
2023-02-03T00:43:34.734Z,6.43
2023-02-03T00:46:01.948Z,7.78
2023-02-03T00:48:29.159Z,7.32
2023-02-03T00:50:56.309Z,7.55
2023-02-03T00:53:23.492Z,7.45
2023-02-03T00:55:50.846Z,6.43
2023-02-03T00:58:17.999Z,4.70
2023-02-03T01:00:45.244Z,4.53
2023-02-03T01:03:12.486Z,6.38
2023-02-03T01:05:39.643Z,5.80
2023-02-03T01:08:06.776Z,5.30
2023-02-03T01:10:34.034Z,6.40
2023-02-03T01:13:01.282Z,5.40
2023-02-03T01:15:28.431Z,6.40
2023-02-03T01:17:55.594Z,4.70
2023-02-03T01:20:24.295Z,6.30
2023-02-03T01:22:51.686Z,6.05
2023-02-03T01:25:18.851Z,7.30
2023-02-03T01:27:46.040Z,6.80
2023-02-03T01:30:13.374Z,4.15
2023-02-03T01:32:40.569Z,3.75
2023-02-03T01:35:07.994Z,5.03
2023-02-03T01:37:35.168Z,5.25
2023-02-03T01:40:02.626Z,5.55
2023-02-03T01:42:29.850Z,4.20
2023-02-03T01:44:58.437Z,4.88
2023-02-03T01:47:30.099Z,3.25
2023-02-03T01:50:01.723Z,3.90
2023-02-03T01:52:28.952Z,3.30
2023-02-03T01:54:56.306Z,3.75
2023-02-03T01:57:27.517Z,3.55
2023-02-03T01:59:54.905Z,3.15
2023-02-03T02:02:22.127Z,3.97
2023-02-03T02:05:09.228Z,4.63
2023-02-03T02:07:36.738Z,2.70
2023-02-03T02:10:04.390Z,3.10
2023-02-03T02:12:31.573Z,1.87
2023-02-03T02:14:58.728Z,3.95
2023-02-03T02:17:31.933Z,4.45
2023-02-03T02:20:05.274Z,4.35
2023-02-03T02:22:35.615Z,2.20
2023-02-03T02:25:12.157Z,3.33
2023-02-03T02:27:54.864Z,3.28
2023-02-03T02:30:34.288Z,3.20
2023-02-03T02:33:16.717Z,10.68
2023-02-03T02:35:57.605Z,4.32
2023-02-03T02:38:43.722Z,3.50
2023-02-03T02:41:18.634Z,3.70
2023-02-03T02:44:04.638Z,2.70
2023-02-03T02:46:32.992Z,3.83
2023-02-03T02:49:00.159Z,2.50
2023-02-03T02:51:27.360Z,4.90
2023-02-03T02:53:56.053Z,2.88
2023-02-03T02:56:23.353Z,2.80
2023-02-03T02:58:50.746Z,3.65
2023-02-03T03:01:19.193Z,5.03
2023-02-03T03:03:46.580Z,5.68
2023-02-03T03:06:15.736Z,6.15
2023-02-03T03:08:44.977Z,4.38
2023-02-03T03:11:12.170Z,6.68
2023-02-03T03:13:40.447Z,8.05
2023-02-03T03:16:07.866Z,8.38
2023-02-03T03:18:39.895Z,6.30
2023-02-03T03:21:07.114Z,5.85
2023-02-03T03:23:36.279Z,9.63
2023-02-03T03:26:05.634Z,6.63
2023-02-03T03:28:36.567Z,9.40
2023-02-03T03:31:03.802Z,7.93
2023-02-03T03:33:30.979Z,9.98
2023-02-03T03:36:00.771Z,8.73
2023-02-03T03:38:33.064Z,9.70
2023-02-03T03:41:02.833Z,8.93
2023-02-03T03:43:30.987Z,8.43
2023-02-03T03:45:58.143Z,9.05
2023-02-03T03:48:47.916Z,8.25
2023-02-03T03:51:17.334Z,7.25
2023-02-03T03:53:44.538Z,8.27
2023-02-03T03:56:14.191Z,8.07
2023-02-03T03:58:41.366Z,12.32
2023-02-03T04:01:08.642Z,10.50
2023-02-03T04:03:39.689Z,11.70
2023-02-03T04:06:06.967Z,13.23
2023-02-03T04:08:34.133Z,12.00
2023-02-03T04:11:01.318Z,12.05
2023-02-03T04:13:28.511Z,11.85
2023-02-03T04:15:55.742Z,12.50
2023-02-03T04:18:22.945Z,14.68
2023-02-03T04:20:50.199Z,13.90
2023-02-03T04:23:17.377Z,14.63
2023-02-03T04:25:44.567Z,15.05
2023-02-03T04:28:11.833Z,15.93
2023-02-03T04:30:39.042Z,18.08
2023-02-03T04:33:06.247Z,21.10
2023-02-03T04:35:33.416Z,18.40
2023-02-03T04:38:00.556Z,17.08
2023-02-03T04:40:28.086Z,19.60
2023-02-03T04:42:55.332Z,22.27
2023-02-03T04:45:22.455Z,23.10
2023-02-03T04:47:54.288Z,24.60
2023-02-03T04:50:21.854Z,23.10
2023-02-03T04:52:49.002Z,24.38
2023-02-03T04:55:16.187Z,28.15
2023-02-03T04:57:43.363Z,28.80
2023-02-03T05:00:10.899Z,24.58
2023-02-03T05:02:38.143Z,28.08
2023-02-03T05:05:05.422Z,21.55
2023-02-03T05:07:32.572Z,27.42
2023-02-03T05:09:59.723Z,22.48
2023-02-03T05:12:26.836Z,28.02
2023-02-03T05:14:53.993Z,23.55
2023-02-03T05:17:21.147Z,22.13
2023-02-03T05:19:48.357Z,25.13
2023-02-03T05:22:15.521Z,22.85
2023-02-03T05:24:42.720Z,18.42
2023-02-03T05:27:09.913Z,17.73
2023-02-03T05:29:37.331Z,19.48
2023-02-03T05:32:05.135Z,20.92
2023-02-03T05:34:32.375Z,17.03
2023-02-03T05:37:00.857Z,14.10
2023-02-03T05:39:28.051Z,14.00
2023-02-03T05:41:58.357Z,10.50
2023-02-03T05:44:26.700Z,11.32
2023-02-03T05:46:54.260Z,12.48
2023-02-03T05:49:23.198Z,10.60
2023-02-03T05:51:50.791Z,9.73
2023-02-03T05:54:17.928Z,11.70
2023-02-03T05:56:45.077Z,6.28
2023-02-03T05:59:12.338Z,6.27
2023-02-03T06:01:39.512Z,9.23
2023-02-03T06:04:06.962Z,7.57
2023-02-03T06:06:34.377Z,5.17
2023-02-03T06:09:02.188Z,4.53
2023-02-03T06:11:29.391Z,4.85
2023-02-03T06:13:58.628Z,2.17
2023-02-03T06:16:26.408Z,3.38
2023-02-03T06:18:53.968Z,3.50
2023-02-03T06:21:21.370Z,2.30
2023-02-03T06:23:48.663Z,2.20
2023-02-03T06:26:15.881Z,2.47
2023-02-03T06:28:43.070Z,2.88
2023-02-03T06:31:10.289Z,4.20
2023-02-03T06:33:37.496Z,1.50
2023-02-03T06:36:04.757Z,2.50
2023-02-03T06:38:31.916Z,1.52
2023-02-03T06:40:59.108Z,2.13
2023-02-03T06:43:26.320Z,1.80
2023-02-03T06:45:53.527Z,2.97
2023-02-03T06:48:20.747Z,1.83
2023-02-03T06:50:48.798Z,2.53
2023-02-03T06:53:16.098Z,1.10
2023-02-03T06:55:43.523Z,2.60
2023-02-03T06:58:10.721Z,1.83
2023-02-03T07:00:37.877Z,1.70
2023-02-03T07:03:05.563Z,2.63
2023-02-03T07:05:32.797Z,1.85
2023-02-03T07:08:00.139Z,1.95
2023-02-03T07:10:27.541Z,0.68
2023-02-03T07:12:54.950Z,3.80
2023-02-03T07:15:22.153Z,2.40
2023-02-03T07:17:54.559Z,1.10
2023-02-03T07:20:22.489Z,4.00
2023-02-03T07:22:56.336Z,3.00
2023-02-03T07:25:23.988Z,3.72
2023-02-03T07:27:51.325Z,2.30
2023-02-03T07:30:18.674Z,1.83
2023-02-03T07:32:52.102Z,2.03
2023-02-03T07:35:19.350Z,3.17
2023-02-03T07:37:46.543Z,1.63
2023-02-03T07:40:13.909Z,2.03
2023-02-03T07:42:44.484Z,2.17
2023-02-03T07:45:11.957Z,1.95
2023-02-03T07:47:39.290Z,1.85
2023-02-03T07:50:06.900Z,1.00
2023-02-03T07:52:34.098Z,1.20
2023-02-03T07:55:01.264Z,1.15
2023-02-03T07:57:28.456Z,1.48
2023-02-03T07:59:55.648Z,1.95
2023-02-03T08:02:22.809Z,2.17
2023-02-03T08:04:50.151Z,3.58
2023-02-03T08:07:17.316Z,2.60
2023-02-03T08:09:44.669Z,1.47
2023-02-03T08:12:11.841Z,2.10
2023-02-03T08:14:39.015Z,1.77
2023-02-03T08:17:06.175Z,3.78
2023-02-03T08:19:33.986Z,2.83
2023-02-03T08:22:01.177Z,3.23
2023-02-03T08:24:28.365Z,2.85
2023-02-03T08:26:55.550Z,3.60
2023-02-03T08:29:22.851Z,5.45
2023-02-03T08:31:50.145Z,5.75
2023-02-03T08:34:17.503Z,4.28
2023-02-03T08:36:44.665Z,4.57
2023-02-03T08:39:11.908Z,6.85
2023-02-03T08:41:39.115Z,9.20
2023-02-03T08:44:06.473Z,11.88
2023-02-03T08:46:34.819Z,14.85
2023-02-03T08:49:02.929Z,11.27
2023-02-03T08:51:30.372Z,11.55
2023-02-03T08:53:57.626Z,14.40
2023-02-03T08:56:26.387Z,18.90
2023-02-03T08:58:55.086Z,16.27
2023-02-03T09:01:23.213Z,17.23
2023-02-03T09:03:50.482Z,19.00
2023-02-03T09:06:17.750Z,16.30
2023-02-03T09:08:46.275Z,15.55
2023-02-03T09:11:16.373Z,19.20
2023-02-03T09:13:47.874Z,14.75
2023-02-03T09:16:18.279Z,15.23
2023-02-03T09:18:45.909Z,16.05
2023-02-03T09:21:20.835Z,15.60
2023-02-03T09:24:01.579Z,20.02
2023-02-03T09:26:28.798Z,17.15
2023-02-03T09:28:56.159Z,22.05
2023-02-03T09:31:23.523Z,19.67
2023-02-03T09:33:50.852Z,21.27
2023-02-03T09:36:21.479Z,19.73
2023-02-03T09:38:49.266Z,30.15
2023-02-03T09:41:28.834Z,24.25
2023-02-03T09:44:30.237Z,28.52
2023-02-03T09:46:58.041Z,22.85
2023-02-03T09:49:26.660Z,27.17
2023-02-03T09:51:55.235Z,21.02
2023-02-03T09:54:30.730Z,28.67
2023-02-03T09:57:00.230Z,22.35
2023-02-03T09:59:27.711Z,25.05
2023-02-03T10:02:09.510Z,25.40
2023-02-03T10:04:39.975Z,21.87
2023-02-03T10:07:16.701Z,20.65
2023-02-03T10:10:03.466Z,22.67
2023-02-03T10:12:43.775Z,27.50
2023-02-03T10:15:11.772Z,26.63
2023-02-03T10:17:40.096Z,20.02
2023-02-03T10:20:07.625Z,23.15
2023-02-03T10:22:36.038Z,20.07
2023-02-03T10:25:08.486Z,24.63
2023-02-03T10:27:36.103Z,20.33
2023-02-03T10:30:08.853Z,25.50
2023-02-03T10:32:37.622Z,27.98
2023-02-03T10:35:06.809Z,27.25
2023-02-03T10:37:34.889Z,26.88
2023-02-03T10:40:02.565Z,32.05
2023-02-03T10:42:50.327Z,29.25
2023-02-03T10:45:17.706Z,21.45
2023-02-03T10:47:57.387Z,26.98
2023-02-03T10:50:31.643Z,29.50
2023-02-03T10:53:18.277Z,18.67
2023-02-03T10:55:46.507Z,30.27
2023-02-03T10:58:30.128Z,26.50
2023-02-03T11:01:08.164Z,29.00
2023-02-03T11:03:35.664Z,25.50
2023-02-03T11:06:05.777Z,32.95
2023-02-03T11:08:33.378Z,20.27
2023-02-03T11:11:04.944Z,21.45
2023-02-03T11:13:32.322Z,16.85
2023-02-03T11:16:24.751Z,13.93
2023-02-03T11:18:53.403Z,15.05
2023-02-03T11:21:23.637Z,15.80
2023-02-03T11:23:55.344Z,13.68
2023-02-03T11:26:23.992Z,16.05
2023-02-03T11:28:52.246Z,11.13
2023-02-03T11:31:22.858Z,16.92
2023-02-03T11:33:51.985Z,17.43
2023-02-03T11:36:19.395Z,17.40
2023-02-03T11:38:46.912Z,17.23
2023-02-03T11:41:18.701Z,20.88
2023-02-03T11:43:46.238Z,18.13
2023-02-03T11:46:13.432Z,18.88
2023-02-03T11:48:45.057Z,22.67
2023-02-03T11:51:24.554Z,19.13
2023-02-03T11:53:58.611Z,23.90
2023-02-03T11:56:44.732Z,24.02
2023-02-03T11:59:21.139Z,19.80
2023-02-03T12:01:51.563Z,25.23
2023-02-03T12:04:37.483Z,23.00
2023-02-03T12:07:12.131Z,23.80
2023-02-03T12:09:40.349Z,27.52
2023-02-03T12:12:42.875Z,31.33
2023-02-03T12:15:15.961Z,22.30
2023-02-03T12:17:51.957Z,24.23
2023-02-03T12:20:45.562Z,21.92
2023-02-03T12:23:15.890Z,27.42
2023-02-03T12:25:56.484Z,21.20
2023-02-03T12:28:39.170Z,26.60
2023-02-03T12:31:12.988Z,27.58
2023-02-03T12:33:44.925Z,22.00
2023-02-03T12:36:13.875Z,21.95
2023-02-03T12:38:47.424Z,22.88
2023-02-03T12:41:15.540Z,19.52
2023-02-03T12:43:50.799Z,24.33
2023-02-03T12:46:21.161Z,25.73
2023-02-03T12:48:53.264Z,27.23
2023-02-03T12:51:32.499Z,19.85
2023-02-03T12:54:04.180Z,23.70
2023-02-03T12:56:49.529Z,31.52
2023-02-03T12:59:19.402Z,23.38
2023-02-03T13:01:46.923Z,24.63
2023-02-03T13:04:25.108Z,26.10
2023-02-03T13:07:05.541Z,24.55
2023-02-03T13:09:38.299Z,27.23
2023-02-03T13:12:11.786Z,25.83
2023-02-03T13:14:43.431Z,25.08
2023-02-03T13:17:22.932Z,25.50
2023-02-03T13:19:51.010Z,32.38
2023-02-03T13:22:18.274Z,25.95
2023-02-03T13:24:54.801Z,32.53
2023-02-03T13:27:43.040Z,25.77
2023-02-03T13:30:13.467Z,28.25
2023-02-03T13:32:48.676Z,31.57
2023-02-03T13:35:34.892Z,28.27
2023-02-03T13:38:02.160Z,27.27
2023-02-03T13:40:32.368Z,26.63
2023-02-03T13:43:00.225Z,25.75
2023-02-03T13:45:34.747Z,25.80
2023-02-03T13:48:28.502Z,29.73
2023-02-03T13:51:06.392Z,20.45
2023-02-03T13:53:40.163Z,26.30
2023-02-03T13:56:17.229Z,22.67
2023-02-03T13:58:44.419Z,22.55
2023-02-03T14:01:33.351Z,24.52
2023-02-03T14:04:01.156Z,21.80
2023-02-03T14:06:40.425Z,23.75
2023-02-03T14:09:23.876Z,26.10
2023-02-03T14:12:06.916Z,28.75
2023-02-03T14:14:34.923Z,30.13
2023-02-03T14:17:02.194Z,21.88
2023-02-03T14:19:29.379Z,33.30
2023-02-03T14:22:09.208Z,26.80
2023-02-03T14:24:37.490Z,24.08
2023-02-03T14:27:04.983Z,26.45
2023-02-03T14:29:33.382Z,22.90
2023-02-03T14:32:01.367Z,27.25
2023-02-03T14:34:30.099Z,30.65
2023-02-03T14:36:57.433Z,39.67
2023-02-03T14:39:35.738Z,31.55
2023-02-03T14:42:02.915Z,34.20
2023-02-03T14:44:38.966Z,29.85
2023-02-03T14:47:12.005Z,32.60
2023-02-03T14:49:42.029Z,35.00
2023-02-03T14:52:17.865Z,32.38
2023-02-03T14:55:04.658Z,28.70
2023-02-03T14:57:52.334Z,32.97
2023-02-03T15:00:24.089Z,33.95
2023-02-03T15:03:15.029Z,30.67
2023-02-03T15:05:43.014Z,39.40
2023-02-03T15:08:29.061Z,44.60
2023-02-03T15:10:56.221Z,38.37
2023-02-03T15:13:30.139Z,44.58
2023-02-03T15:15:58.254Z,44.80
2023-02-03T15:18:51.721Z,44.95
2023-02-03T15:21:19.263Z,51.00
2023-02-03T15:23:51.061Z,55.63
2023-02-03T15:26:28.024Z,53.78
2023-02-03T15:28:56.441Z,45.65
2023-02-03T15:31:26.537Z,50.58
2023-02-03T15:33:53.783Z,49.85
2023-02-03T15:36:22.081Z,47.47
2023-02-03T15:39:01.086Z,49.15
2023-02-03T15:41:28.330Z,51.38
2023-02-03T15:43:57.117Z,47.25
2023-02-03T15:46:27.939Z,64.32
2023-02-03T15:48:59.730Z,62.27
2023-02-03T15:51:32.651Z,59.35
2023-02-03T15:54:10.290Z,47.53
2023-02-03T15:56:41.789Z,52.70
2023-02-03T15:59:28.014Z,51.70
2023-02-03T16:01:55.327Z,47.03
2023-02-03T16:04:22.778Z,40.92
2023-02-03T16:06:50.309Z,41.47
2023-02-03T16:09:27.926Z,45.95
2023-02-03T16:12:06.427Z,50.53
2023-02-03T16:14:36.841Z,46.85
2023-02-03T16:17:06.004Z,47.33
2023-02-03T16:19:34.583Z,47.55
2023-02-03T16:22:01.953Z,53.38
2023-02-03T16:24:40.379Z,44.78
2023-02-03T16:27:33.211Z,61.22
2023-02-03T16:30:25.134Z,43.55
2023-02-03T16:33:43.469Z,50.50
2023-02-03T16:36:32.840Z,51.17
2023-02-03T16:39:21.200Z,50.78
2023-02-03T16:42:07.241Z,52.83
2023-02-03T16:44:52.980Z,55.53
2023-02-03T16:47:43.470Z,48.47
2023-02-03T16:50:47.452Z,54.28
2023-02-03T16:53:17.254Z,54.85
2023-02-03T16:55:46.383Z,45.63
2023-02-03T16:58:13.809Z,52.10
2023-02-03T17:00:41.984Z,49.83
2023-02-03T17:03:10.832Z,50.58
2023-02-03T17:05:38.510Z,42.40
2023-02-03T17:08:06.118Z,53.45
2023-02-03T17:10:36.850Z,46.40
2023-02-03T17:13:04.272Z,39.15
2023-02-03T17:15:31.733Z,49.85
2023-02-03T17:17:59.330Z,43.65
2023-02-03T17:20:26.624Z,32.03
2023-02-03T17:22:54.694Z,31.00
2023-02-03T17:25:22.473Z,42.13
2023-02-03T17:27:49.698Z,42.90
2023-02-03T17:30:17.019Z,33.92
2023-02-03T17:32:44.185Z,29.17
2023-02-03T17:35:11.378Z,33.75
2023-02-03T17:37:38.619Z,35.63
2023-02-03T17:53:53.379Z,30.13
2023-02-03T17:56:21.492Z,26.08
2023-02-03T17:58:48.679Z,21.80
2023-02-03T18:01:19.513Z,16.42
2023-02-03T18:03:51.283Z,22.60
2023-02-03T18:06:19.185Z,47.75
2023-02-03T18:08:46.531Z,35.20
2023-02-03T18:11:13.878Z,31.30
2023-02-03T18:13:42.740Z,35.20
2023-02-03T18:16:10.931Z,32.20
2023-02-03T18:18:39.004Z,22.00
2023-02-03T18:21:06.562Z,16.20
2023-02-03T18:23:33.762Z,18.98
2023-02-03T18:26:01.006Z,27.27
2023-02-03T18:28:29.243Z,16.48
2023-02-03T18:31:25.703Z,28.92
2023-02-03T18:33:52.914Z,17.65
2023-02-03T18:36:20.162Z,38.67
2023-02-03T18:38:47.579Z,21.77
2023-02-03T18:41:14.869Z,23.40
2023-02-03T18:43:42.259Z,22.52
2023-02-03T18:46:10.000Z,20.00
2023-02-03T18:48:37.331Z,16.13
2023-02-03T18:51:05.905Z,10.57
2023-02-03T18:53:33.083Z,31.90
2023-02-03T18:56:00.244Z,17.33
2023-02-03T18:58:27.890Z,58.20
2023-02-03T19:00:56.130Z,20.80
2023-02-03T19:03:24.836Z,17.90
2023-02-03T19:05:52.017Z,22.73
2023-02-03T19:08:19.443Z,13.68
2023-02-03T19:10:47.905Z,22.00
2023-02-03T19:13:15.259Z,6.85
2023-02-03T19:15:43.114Z,6.38
2023-02-03T19:18:10.809Z,9.63
2023-02-03T19:20:38.103Z,12.82
2023-02-03T19:23:08.616Z,18.50
2023-02-03T19:25:38.888Z,17.70
2023-02-03T19:28:11.742Z,26.23
2023-02-03T19:30:44.849Z,8.57
2023-02-03T19:33:12.183Z,7.68
2023-02-03T19:35:39.523Z,6.40
2023-02-03T19:38:06.853Z,6.05
2023-02-03T19:40:34.225Z,3.75
2023-02-03T19:43:01.578Z,3.43
2023-02-03T19:45:28.844Z,4.32
2023-02-03T19:47:56.695Z,4.13
2023-02-03T19:50:24.000Z,4.88
2023-02-03T19:52:51.340Z,4.20
2023-02-03T19:55:18.624Z,2.35
2023-02-03T19:57:45.779Z,3.42
2023-02-03T20:00:14.200Z,6.32
2023-02-03T20:02:41.886Z,3.13
2023-02-03T20:05:10.456Z,2.50
2023-02-03T20:07:37.906Z,3.87
2023-02-03T20:10:05.560Z,5.22
2023-02-03T20:12:32.850Z,3.58
2023-02-03T20:15:02.723Z,1.90
2023-02-03T20:17:30.093Z,3.50
2023-02-03T20:19:57.474Z,6.05
2023-02-03T20:22:24.657Z,2.20
2023-02-03T20:24:53.025Z,3.45
2023-02-03T20:27:20.715Z,5.45
2023-02-03T20:29:49.615Z,5.25
2023-02-03T20:32:16.815Z,5.55
2023-02-03T20:34:44.070Z,5.88
2023-02-03T20:37:11.766Z,5.00
2023-02-03T20:39:39.013Z,2.40
2023-02-03T20:42:16.657Z,1.95
2023-02-03T20:44:44.085Z,3.22
2023-02-03T20:47:11.872Z,6.85
2023-02-03T20:49:39.048Z,3.15
2023-02-03T20:52:13.326Z,2.00
2023-02-03T20:54:40.750Z,3.17
2023-02-03T20:57:12.152Z,4.78
2023-02-03T20:59:39.342Z,3.57
2023-02-03T21:02:17.577Z,4.77
2023-02-03T21:05:00.716Z,3.58
2023-02-03T21:07:30.517Z,3.80
2023-02-03T21:09:58.762Z,5.30
2023-02-03T21:12:26.022Z,5.43
2023-02-03T21:14:55.034Z,3.97
2023-02-03T21:17:25.898Z,4.80
2023-02-03T21:19:53.622Z,4.75
2023-02-03T21:22:22.227Z,6.45
2023-02-03T21:25:07.310Z,3.55
2023-02-03T21:27:34.797Z,2.72
2023-02-03T21:30:02.727Z,6.68
2023-02-03T21:32:48.840Z,4.20
2023-02-03T21:35:28.235Z,2.92
2023-02-03T21:37:57.126Z,3.25
2023-02-03T21:40:24.369Z,4.63
2023-02-03T21:42:51.799Z,3.50
2023-02-03T21:45:22.337Z,3.47
2023-02-03T21:47:49.993Z,3.78
2023-02-03T21:50:32.721Z,3.80
2023-02-03T21:53:06.139Z,5.45
2023-02-03T21:55:33.401Z,7.45
2023-02-03T21:58:00.676Z,3.17
2023-02-03T22:00:34.525Z,4.35
2023-02-03T22:03:07.946Z,4.60
2023-02-03T22:05:35.889Z,3.40
2023-02-03T22:08:19.649Z,3.90
2023-02-03T22:10:46.945Z,4.88
2023-02-03T22:13:14.424Z,2.28
2023-02-03T22:15:42.090Z,4.87
2023-02-03T22:18:09.443Z,5.38
2023-02-03T22:20:36.644Z,5.22
2023-02-03T22:23:05.255Z,3.30
2023-02-03T22:25:32.566Z,4.18
2023-02-03T22:27:59.812Z,4.72
2023-02-03T22:30:27.070Z,4.60
2023-02-03T22:32:54.409Z,2.92
2023-02-03T22:35:21.636Z,4.90
2023-02-03T22:37:50.275Z,3.03
2023-02-03T22:40:17.835Z,3.00
2023-02-03T22:42:45.110Z,2.75
2023-02-03T22:45:12.383Z,3.30
2023-02-03T22:47:39.553Z,3.70
2023-02-03T22:50:09.025Z,2.42
2023-02-03T22:52:36.331Z,3.60
2023-02-03T22:55:03.920Z,2.70
2023-02-03T22:57:31.117Z,2.30
2023-02-03T22:59:58.301Z,3.17
2023-02-03T23:02:25.488Z,5.65
2023-02-03T23:04:52.805Z,4.20
2023-02-03T23:07:20.032Z,3.47
2023-02-03T23:09:47.191Z,4.15
2023-02-03T23:12:14.344Z,4.13
2023-02-03T23:14:41.545Z,2.10
2023-02-03T23:17:08.722Z,4.75
2023-02-03T23:19:35.839Z,3.05
2023-02-03T23:22:02.982Z,2.55
2023-02-03T23:24:30.141Z,0.85
2023-02-03T23:26:57.321Z,2.15
2023-02-03T23:29:24.492Z,2.43
2023-02-03T23:31:51.784Z,2.70
2023-02-03T23:34:54.343Z,2.85
2023-02-03T23:37:22.535Z,6.70
2023-02-03T23:39:50.030Z,1.45
2023-02-03T23:42:17.281Z,2.53
2023-02-03T23:44:44.413Z,3.38
2023-02-03T23:47:11.573Z,2.75
2023-02-03T23:49:38.896Z,2.17
2023-02-03T23:52:06.031Z,1.23
2023-02-03T23:54:33.198Z,1.95
2023-02-03T23:57:00.348Z,1.67
2023-02-03T23:59:27.503Z,2.10
